createdAt,value
2018-07-21T00:00:40.487Z,6.33
2018-07-21T00:03:16.558Z,7.45
2018-07-21T00:05:52.536Z,7.30
2018-07-21T00:08:28.688Z,6.42
2018-07-21T00:11:04.799Z,6.97
2018-07-21T00:13:40.836Z,6.35
2018-07-21T00:16:17.079Z,7.10
2018-07-21T00:18:53.099Z,6.03
2018-07-21T00:21:29.555Z,7.05
2018-07-21T00:24:05.398Z,6.87
2018-07-21T00:26:46.126Z,6.80
2018-07-21T00:29:22.017Z,6.80
2018-07-21T00:31:58.125Z,8.65
2018-07-21T00:34:34.125Z,7.33
2018-07-21T00:37:10.156Z,6.80
2018-07-21T00:39:46.136Z,7.67
2018-07-21T00:42:22.169Z,7.40
2018-07-21T00:44:57.826Z,6.65
2018-07-21T00:47:33.662Z,7.95
2018-07-21T00:50:09.957Z,6.72
2018-07-21T00:52:46.191Z,7.70
2018-07-21T00:55:22.377Z,6.33
2018-07-21T00:57:58.628Z,6.47
2018-07-21T01:00:34.888Z,6.10
2018-07-21T01:03:11.138Z,6.50
2018-07-21T01:05:47.230Z,6.90
2018-07-21T01:08:23.456Z,6.55
2018-07-21T01:10:59.381Z,6.08
2018-07-21T01:13:35.465Z,6.62
2018-07-21T01:16:11.869Z,6.42
2018-07-21T01:18:48.009Z,6.65
2018-07-21T01:21:24.088Z,5.90
2018-07-21T01:24:00.215Z,6.85
2018-07-21T01:26:36.418Z,6.37
2018-07-21T01:29:12.454Z,6.60
2018-07-21T01:31:48.617Z,6.97
2018-07-21T01:34:24.886Z,5.78
2018-07-21T01:37:01.159Z,6.20
2018-07-21T01:39:37.306Z,6.00
2018-07-21T01:42:13.608Z,6.12
2018-07-21T01:44:49.922Z,7.03
2018-07-21T01:47:25.996Z,6.42
2018-07-21T01:50:01.631Z,7.10
2018-07-21T01:52:37.916Z,6.97
2018-07-21T01:55:14.167Z,6.50
2018-07-21T01:57:50.351Z,6.80
2018-07-21T02:00:26.508Z,6.65
2018-07-21T02:03:02.436Z,7.33
2018-07-21T02:05:39.279Z,6.45
2018-07-21T02:08:15.597Z,6.78
2018-07-21T02:10:51.850Z,7.30
2018-07-21T02:13:28.108Z,6.78
2018-07-21T02:16:04.346Z,6.72
2018-07-21T02:18:40.649Z,6.70
2018-07-21T02:21:16.790Z,6.80
2018-07-21T02:23:52.792Z,7.42
2018-07-21T02:26:28.895Z,6.55
2018-07-21T02:29:05.006Z,6.65
2018-07-21T02:31:40.999Z,6.15
2018-07-21T02:34:17.120Z,6.60
2018-07-21T02:36:53.130Z,6.90
2018-07-21T02:39:29.311Z,7.37
2018-07-21T02:42:05.557Z,7.10
2018-07-21T02:44:41.849Z,6.65
2018-07-21T02:47:18.088Z,6.50
2018-07-21T02:49:54.037Z,7.47
2018-07-21T02:52:30.201Z,5.87
2018-07-21T02:55:06.260Z,6.87
2018-07-21T02:57:42.209Z,6.42
2018-07-21T03:00:18.378Z,6.25
2018-07-21T03:02:54.429Z,7.15
2018-07-21T03:05:30.689Z,6.50
2018-07-21T03:08:06.858Z,6.12
2018-07-21T03:10:43.239Z,6.92
2018-07-21T03:13:19.359Z,7.40
2018-07-21T03:15:55.459Z,7.08
2018-07-21T03:18:31.590Z,7.30
2018-07-21T03:21:07.670Z,7.00
2018-07-21T03:23:43.810Z,6.75
2018-07-21T03:26:19.789Z,7.70
2018-07-21T03:28:55.858Z,6.92
2018-07-21T03:31:31.896Z,7.10
2018-07-21T03:34:07.956Z,7.40
2018-07-21T03:36:43.929Z,7.25
2018-07-21T03:39:20.165Z,7.10
2018-07-21T03:41:56.218Z,7.45
2018-07-21T03:44:32.170Z,6.80
2018-07-21T03:47:08.578Z,6.78
2018-07-21T03:49:44.466Z,6.85
2018-07-21T03:52:20.626Z,6.15
2018-07-21T03:54:56.920Z,7.20
2018-07-21T03:57:33.056Z,6.33
2018-07-21T04:00:09.243Z,5.87
2018-07-21T04:02:45.296Z,7.12
2018-07-21T04:05:21.576Z,7.10
2018-07-21T04:07:57.545Z,7.28
2018-07-21T04:10:33.655Z,6.37
2018-07-21T04:13:09.846Z,5.53
2018-07-21T04:15:45.817Z,6.20
2018-07-21T04:18:22.201Z,5.83
2018-07-21T04:20:58.096Z,6.20
2018-07-21T04:23:34.202Z,6.05
2018-07-21T04:26:10.564Z,6.17
2018-07-21T04:28:46.479Z,6.50
2018-07-21T04:31:22.766Z,6.62
2018-07-21T04:33:58.778Z,6.70
2018-07-21T04:36:34.749Z,6.05
2018-07-21T04:39:12.029Z,6.45
2018-07-21T04:41:48.018Z,5.80
2018-07-21T04:44:23.978Z,5.95
2018-07-21T04:47:00.228Z,6.05
2018-07-21T04:49:36.409Z,6.05
2018-07-21T04:52:12.439Z,5.75
2018-07-21T04:54:48.388Z,5.60
2018-07-21T04:57:24.406Z,6.45
2018-07-21T05:00:00.527Z,6.35
2018-07-21T05:02:36.809Z,6.90
2018-07-21T05:05:13.071Z,5.85
2018-07-21T05:07:49.282Z,6.17
2018-07-21T05:10:25.464Z,6.25
2018-07-21T05:13:01.358Z,6.75
2018-07-21T05:15:37.377Z,6.72
2018-07-21T05:18:13.466Z,5.43
2018-07-21T05:20:49.519Z,5.90
2018-07-21T05:23:25.908Z,4.93
2018-07-21T05:26:02.008Z,5.20
2018-07-21T05:28:38.207Z,4.90
2018-07-21T05:31:14.445Z,5.80
2018-07-21T05:33:50.877Z,5.37
2018-07-21T05:36:26.985Z,5.67
2018-07-21T05:39:03.163Z,5.57
2018-07-21T05:41:39.762Z,5.47
2018-07-21T05:44:15.760Z,4.83
2018-07-21T05:46:51.712Z,4.73
2018-07-21T05:49:29.012Z,4.40
2018-07-21T05:52:04.948Z,5.00
2018-07-21T05:54:40.972Z,4.27
2018-07-21T05:57:17.030Z,3.93
2018-07-21T05:59:53.260Z,4.47
2018-07-21T06:02:29.475Z,4.40
2018-07-21T06:05:05.865Z,11.20
2018-07-21T06:07:41.938Z,5.43
2018-07-21T06:10:17.965Z,4.17
2018-07-21T06:12:54.046Z,4.40
2018-07-21T06:15:30.319Z,4.60
2018-07-21T06:18:06.379Z,4.40
2018-07-21T06:20:42.717Z,3.83
2018-07-21T06:23:18.727Z,4.60
2018-07-21T06:25:54.838Z,4.00
2018-07-21T06:28:30.886Z,4.83
2018-07-21T06:31:07.138Z,3.27
2018-07-21T06:33:43.168Z,3.60
2018-07-21T06:36:19.270Z,4.30
2018-07-21T06:38:55.367Z,3.80
2018-07-21T06:41:31.473Z,3.70
2018-07-21T06:44:07.832Z,3.90
2018-07-21T06:46:44.572Z,3.50
2018-07-21T06:49:20.650Z,3.73
2018-07-21T06:51:56.677Z,4.00
2018-07-21T06:54:32.758Z,4.60
2018-07-21T06:57:08.802Z,4.83
2018-07-21T06:59:45.139Z,3.83
2018-07-21T07:02:21.025Z,4.40
2018-07-21T07:04:57.169Z,3.57
2018-07-21T07:07:33.301Z,4.30
2018-07-21T07:10:09.451Z,4.63
2018-07-21T07:12:45.678Z,4.33
2018-07-21T07:15:21.956Z,4.43
2018-07-21T07:17:57.808Z,4.90
2018-07-21T07:20:33.903Z,4.50
2018-07-21T07:23:10.001Z,4.10
2018-07-21T07:25:46.106Z,4.50
2018-07-21T07:28:21.954Z,4.40
2018-07-21T07:30:58.256Z,4.43
2018-07-21T07:33:35.512Z,4.90
2018-07-21T07:36:11.811Z,8.10
2018-07-21T07:38:47.777Z,6.30
2018-07-21T07:41:23.918Z,4.53
2018-07-21T07:44:00.122Z,8.60
2018-07-21T07:46:36.558Z,7.47
2018-07-21T07:49:12.803Z,3.67
2018-07-21T07:51:48.936Z,4.20
2018-07-21T07:54:25.024Z,4.50
2018-07-21T07:57:00.546Z,5.33
2018-07-21T07:59:36.650Z,4.70
2018-07-21T08:02:12.715Z,4.50
2018-07-21T08:04:49.118Z,4.13
2018-07-21T08:07:25.417Z,3.90
2018-07-21T08:10:01.335Z,4.50
2018-07-21T08:12:37.244Z,5.00
2018-07-21T08:15:13.261Z,4.70
2018-07-21T08:17:49.814Z,4.90
2018-07-21T08:20:25.868Z,4.87
2018-07-21T08:23:02.129Z,4.77
2018-07-21T08:25:38.308Z,5.20
2018-07-21T08:28:16.962Z,4.73
2018-07-21T08:30:53.284Z,5.27
2018-07-21T08:33:29.376Z,4.50
2018-07-21T08:36:05.696Z,5.10
2018-07-21T08:38:41.965Z,4.40
2018-07-21T08:41:18.015Z,5.40
2018-07-21T08:43:54.467Z,4.80
2018-07-21T08:46:30.458Z,5.30
2018-07-21T08:49:06.215Z,5.00
2018-07-21T08:51:42.337Z,5.17
2018-07-21T08:54:18.535Z,5.40
2018-07-21T08:56:54.695Z,4.83
2018-07-21T08:59:30.793Z,4.40
2018-07-21T09:02:07.127Z,6.40
2018-07-21T09:04:43.308Z,4.53
2018-07-21T09:07:19.455Z,5.33
2018-07-21T09:09:55.619Z,4.53
2018-07-21T09:12:31.978Z,5.07
2018-07-21T09:15:08.141Z,4.90
2018-07-21T09:17:44.285Z,4.73
2018-07-21T09:20:20.507Z,5.20
2018-07-21T09:22:56.595Z,4.87
2018-07-21T09:25:32.805Z,4.50
2018-07-21T09:28:08.991Z,4.97
2018-07-21T09:30:44.707Z,4.50
2018-07-21T09:33:20.537Z,4.93
2018-07-21T09:35:56.609Z,4.87
2018-07-21T09:41:03.578Z,5.13
2018-07-21T09:43:39.735Z,4.47
2018-07-21T09:46:15.715Z,4.67
2018-07-21T09:48:51.935Z,4.80
2018-07-21T09:51:28.128Z,4.47
2018-07-21T09:54:04.389Z,4.93
2018-07-21T09:56:40.676Z,5.77
2018-07-21T09:59:16.809Z,5.27
2018-07-21T10:01:52.798Z,5.13
2018-07-21T10:04:28.816Z,5.80
2018-07-21T10:07:05.008Z,5.67
2018-07-21T10:09:41.045Z,4.90
2018-07-21T10:12:17.188Z,5.27
2018-07-21T10:14:53.388Z,4.63
2018-07-21T10:17:29.605Z,5.20
2018-07-21T10:20:05.946Z,4.30
2018-07-21T10:22:42.052Z,4.70
2018-07-21T10:25:23.125Z,4.63
2018-07-21T10:28:04.611Z,4.90
2018-07-21T10:30:40.362Z,5.90
2018-07-21T10:33:16.585Z,5.47
2018-07-21T10:35:52.399Z,4.80
2018-07-21T10:38:28.617Z,5.63
2018-07-21T10:41:04.838Z,5.03
2018-07-21T10:43:40.835Z,5.20
2018-07-21T10:46:16.728Z,4.80
2018-07-21T10:48:57.136Z,4.87
2018-07-21T10:51:33.458Z,5.07
2018-07-21T10:54:09.593Z,4.77
2018-07-21T10:56:45.758Z,6.30
2018-07-21T10:59:21.789Z,5.00
2018-07-21T11:01:58.078Z,5.53
2018-07-21T11:04:34.258Z,5.23
2018-07-21T11:07:10.528Z,5.57
2018-07-21T11:09:46.570Z,5.23
2018-07-21T11:12:22.649Z,5.53
2018-07-21T11:14:59.059Z,6.90
2018-07-21T11:17:35.205Z,6.33
2018-07-21T11:20:11.326Z,5.70
2018-07-21T11:22:47.610Z,5.43
2018-07-21T11:25:23.836Z,5.53
2018-07-21T11:28:00.004Z,5.50
2018-07-21T11:30:36.166Z,6.30
2018-07-21T11:33:12.506Z,5.80
2018-07-21T11:35:48.808Z,5.13
2018-07-21T11:38:24.938Z,5.33
2018-07-21T11:41:00.845Z,5.97
2018-07-21T11:43:36.878Z,5.20
2018-07-21T11:46:13.119Z,5.60
2018-07-21T11:48:49.369Z,5.60
2018-07-21T11:51:25.519Z,5.20
2018-07-21T11:54:01.495Z,6.00
2018-07-21T11:56:37.445Z,5.17
2018-07-21T11:59:13.411Z,5.20
2018-07-21T12:01:49.749Z,4.80
2018-07-21T12:04:26.238Z,4.60
2018-07-21T12:07:02.278Z,5.57
2018-07-21T12:09:38.449Z,5.53
2018-07-21T12:12:14.656Z,4.53
2018-07-21T12:14:50.788Z,5.40
2018-07-21T12:17:26.316Z,4.37
2018-07-21T12:20:02.005Z,4.57
2018-07-21T12:22:38.336Z,5.13
2018-07-21T12:25:14.495Z,4.77
2018-07-21T12:27:50.645Z,4.80
2018-07-21T12:30:26.748Z,4.77
2018-07-21T12:33:02.967Z,4.83
2018-07-21T12:35:38.845Z,4.60
2018-07-21T12:38:14.888Z,5.00
2018-07-21T12:40:50.938Z,5.43
2018-07-21T12:43:27.015Z,5.57
2018-07-21T12:46:03.046Z,4.40
2018-07-21T12:48:39.046Z,4.30
2018-07-21T12:51:15.293Z,4.47
2018-07-21T12:53:51.435Z,4.17
2018-07-21T12:56:27.605Z,4.77
2018-07-21T12:59:03.877Z,4.70
2018-07-21T13:01:40.051Z,5.27
2018-07-21T13:04:16.093Z,5.10
2018-07-21T13:06:52.140Z,4.97
2018-07-21T13:09:28.300Z,5.23
2018-07-21T13:12:04.698Z,5.00
2018-07-21T13:14:40.639Z,4.20
2018-07-21T13:17:16.581Z,4.70
2018-07-21T13:19:52.763Z,4.37
2018-07-21T13:22:29.116Z,4.40
2018-07-21T13:25:05.268Z,5.43
2018-07-21T13:27:41.348Z,4.50
2018-07-21T13:30:17.388Z,4.50
2018-07-21T13:32:53.770Z,4.90
2018-07-21T13:35:29.916Z,4.50
2018-07-21T13:38:06.299Z,4.80
2018-07-21T13:40:42.306Z,4.60
2018-07-21T13:43:18.331Z,4.77
2018-07-21T13:45:54.348Z,4.93
2018-07-21T13:48:30.426Z,4.20
2018-07-21T13:51:06.755Z,4.57
2018-07-21T13:53:42.954Z,4.30
2018-07-21T13:56:19.285Z,3.90
2018-07-21T13:58:55.354Z,4.20
2018-07-21T14:01:31.294Z,4.87
2018-07-21T14:04:07.775Z,4.50
2018-07-21T14:06:43.809Z,5.20
2018-07-21T14:09:19.915Z,5.03
2018-07-21T14:11:56.278Z,4.70
2018-07-21T14:14:32.217Z,5.50
2018-07-21T14:17:08.577Z,5.37
2018-07-21T14:19:44.767Z,4.90
2018-07-21T14:22:20.897Z,5.10
2018-07-21T14:24:56.875Z,5.13
2018-07-21T14:27:33.038Z,4.70
2018-07-21T14:30:09.525Z,4.23
2018-07-21T14:32:45.685Z,4.77
2018-07-21T14:35:21.788Z,4.27
2018-07-21T14:37:57.860Z,5.23
2018-07-21T14:40:33.958Z,4.73
2018-07-21T14:43:10.228Z,4.70
2018-07-21T14:45:46.325Z,5.00
2018-07-21T14:48:22.584Z,4.47
2018-07-21T14:50:58.589Z,4.90
2018-07-21T14:53:34.747Z,4.83
2018-07-21T14:56:10.804Z,5.53
2018-07-21T14:58:47.254Z,5.00
2018-07-21T15:01:23.520Z,4.93
2018-07-21T15:03:59.846Z,5.30
2018-07-21T15:06:36.277Z,5.70
2018-07-21T15:09:13.028Z,5.70
2018-07-21T15:11:49.384Z,5.13
2018-07-21T15:14:25.450Z,5.63
2018-07-21T15:17:01.629Z,5.47
2018-07-21T15:19:37.954Z,5.43
2018-07-21T15:22:14.246Z,5.40
2018-07-21T15:24:50.289Z,4.80
2018-07-21T15:27:26.416Z,5.60
2018-07-21T15:30:02.569Z,5.60
2018-07-21T15:32:38.870Z,4.70
2018-07-21T15:35:14.955Z,6.03
2018-07-21T15:37:52.131Z,5.27
2018-07-21T15:40:28.046Z,5.67
2018-07-21T15:43:04.258Z,5.30
2018-07-21T15:45:40.324Z,5.00
2018-07-21T15:48:16.445Z,4.80
2018-07-21T15:50:52.738Z,4.97
2018-07-21T15:53:28.689Z,5.60
2018-07-21T15:56:04.918Z,5.50
2018-07-21T15:58:40.995Z,4.70
2018-07-21T16:01:17.145Z,5.23
2018-07-21T16:03:53.258Z,6.10
2018-07-21T16:06:29.131Z,4.67
2018-07-21T16:09:07.343Z,4.27
2018-07-21T16:11:43.687Z,5.03
2018-07-21T16:14:19.786Z,5.60
2018-07-21T16:16:55.894Z,5.53
2018-07-21T16:19:32.360Z,5.23
2018-07-21T16:22:08.567Z,5.30
2018-07-21T16:24:45.066Z,5.30
2018-07-21T16:27:21.214Z,5.20
2018-07-21T16:29:57.278Z,4.97
2018-07-21T16:32:33.335Z,5.30
2018-07-21T16:35:09.487Z,5.40
2018-07-21T16:37:45.693Z,6.00
2018-07-21T16:40:21.949Z,4.90
2018-07-21T16:42:58.288Z,5.10
2018-07-21T16:45:34.358Z,5.53
2018-07-21T16:48:10.505Z,5.90
2018-07-21T16:50:46.589Z,6.60
2018-07-21T16:53:22.528Z,6.00
2018-07-21T16:55:58.645Z,6.40
2018-07-21T16:58:34.649Z,5.40
2018-07-21T17:01:10.595Z,6.10
2018-07-21T17:03:46.529Z,6.23
2018-07-21T17:06:22.620Z,6.03
2018-07-21T17:08:58.736Z,5.77
2018-07-21T17:11:34.939Z,5.83
2018-07-21T17:14:11.192Z,6.10
2018-07-21T17:16:47.245Z,4.87
2018-07-21T17:19:23.388Z,5.20
2018-07-21T17:21:59.549Z,5.40
2018-07-21T17:24:35.609Z,5.40
2018-07-21T17:27:11.937Z,5.23
2018-07-21T17:29:48.197Z,4.77
2018-07-21T17:32:24.198Z,5.20
2018-07-21T17:35:00.397Z,5.03
2018-07-21T17:37:36.768Z,5.20
2018-07-21T17:40:12.770Z,5.40
2018-07-21T17:42:48.957Z,5.70
2018-07-21T17:45:25.069Z,4.63
2018-07-21T17:48:01.426Z,5.30
2018-07-21T17:50:37.641Z,4.90
2018-07-21T17:53:14.002Z,5.73
2018-07-21T17:55:50.264Z,5.63
2018-07-21T17:58:26.003Z,6.20
2018-07-21T18:01:01.822Z,5.70
2018-07-21T18:03:38.105Z,6.33
2018-07-21T18:06:14.384Z,4.60
2018-07-21T18:08:53.037Z,5.43
2018-07-21T18:11:29.266Z,5.70
2018-07-21T18:14:05.334Z,5.40
2018-07-21T18:16:41.455Z,5.27
2018-07-21T18:19:17.575Z,5.20
2018-07-21T18:21:53.720Z,5.53
2018-07-21T18:24:29.890Z,4.97
2018-07-21T18:27:06.127Z,5.03
2018-07-21T18:29:42.412Z,5.70
2018-07-21T18:32:18.586Z,5.90
2018-07-21T18:34:54.788Z,6.07
2018-07-21T18:37:30.786Z,6.17
2018-07-21T18:40:06.938Z,5.60
2018-07-21T18:42:43.080Z,6.10
2018-07-21T18:45:19.138Z,5.93
2018-07-21T18:47:55.419Z,4.90
2018-07-21T18:50:31.684Z,5.10
2018-07-21T18:53:07.877Z,5.70
2018-07-21T18:55:44.174Z,5.90
2018-07-21T18:58:20.542Z,6.70
2018-07-21T19:00:56.485Z,7.10
2018-07-21T19:03:32.805Z,6.70
2018-07-21T19:06:08.915Z,5.70
2018-07-21T19:08:50.226Z,5.60
2018-07-21T19:11:26.303Z,4.90
2018-07-21T19:14:02.577Z,6.07
2018-07-21T19:16:40.975Z,5.63
2018-07-21T19:19:17.232Z,5.40
2018-07-21T19:21:53.419Z,6.00
2018-07-21T19:24:29.783Z,5.93
2018-07-21T19:27:12.016Z,5.60
2018-07-21T19:29:48.219Z,5.83
2018-07-21T19:32:29.699Z,5.13
2018-07-21T19:35:05.988Z,5.90
2018-07-21T19:37:48.205Z,5.67
2018-07-21T19:40:24.449Z,6.07
2018-07-21T19:43:00.893Z,5.70
2018-07-21T19:45:36.981Z,6.20
2018-07-21T19:48:13.139Z,5.43
2018-07-21T19:50:49.245Z,5.70
2018-07-21T19:53:25.498Z,5.60
2018-07-21T19:56:02.803Z,4.90
2018-07-21T19:58:38.883Z,6.10
2018-07-21T20:01:15.267Z,5.67
2018-07-21T20:03:51.505Z,5.03
2018-07-21T20:06:27.698Z,7.50
2018-07-21T20:09:03.892Z,6.17
2018-07-21T20:11:40.898Z,6.10
2018-07-21T20:14:16.976Z,4.87
2018-07-21T20:16:53.171Z,5.10
2018-07-21T20:19:29.298Z,6.43
2018-07-21T20:22:04.834Z,5.90
2018-07-21T20:24:40.766Z,6.90
2018-07-21T20:27:16.875Z,6.30
2018-07-21T20:29:52.898Z,6.37
2018-07-21T20:32:29.090Z,5.57
2018-07-21T20:35:05.258Z,6.20
2018-07-21T20:37:41.561Z,6.03
2018-07-21T20:40:17.565Z,5.47
2018-07-21T20:42:53.810Z,6.00
2018-07-21T20:45:30.011Z,5.50
2018-07-21T20:48:06.159Z,5.63
2018-07-21T20:50:42.441Z,5.83
2018-07-21T20:53:18.550Z,5.93
2018-07-21T20:55:54.606Z,6.50
2018-07-21T20:58:30.567Z,6.03
2018-07-21T21:01:06.676Z,5.93
2018-07-21T21:03:43.109Z,6.60
2018-07-21T21:06:19.202Z,6.07
2018-07-21T21:08:55.206Z,5.70
2018-07-21T21:11:31.256Z,6.23
2018-07-21T21:14:07.558Z,5.70
2018-07-21T21:16:43.675Z,6.40
2018-07-21T21:19:19.879Z,5.63
2018-07-21T21:21:55.910Z,7.80
2018-07-21T21:24:32.201Z,6.47
2018-07-21T21:27:08.307Z,5.83
2018-07-21T21:29:44.405Z,6.57
2018-07-21T21:32:20.689Z,5.43
2018-07-21T21:34:56.829Z,6.77
2018-07-21T21:37:33.038Z,6.43
2018-07-21T21:40:09.138Z,5.80
2018-07-21T21:42:45.108Z,5.93
2018-07-21T21:45:21.117Z,5.80
2018-07-21T21:47:57.380Z,5.93
2018-07-21T21:50:33.570Z,6.50
2018-07-21T21:53:09.869Z,7.73
2018-07-21T21:55:46.009Z,6.83
2018-07-21T21:58:22.165Z,6.67
2018-07-21T22:01:07.739Z,6.40
2018-07-21T22:03:44.231Z,6.83
2018-07-21T22:06:20.267Z,6.67
2018-07-21T22:08:56.459Z,6.63
2018-07-21T22:11:32.245Z,5.87
2018-07-21T22:14:08.788Z,6.33
2018-07-21T22:16:45.009Z,6.17
2018-07-21T22:19:21.067Z,7.23
2018-07-21T22:21:57.268Z,6.90
2018-07-21T22:24:33.431Z,6.57
2018-07-21T22:27:09.549Z,6.67
2018-07-21T22:29:45.148Z,7.33
2018-07-21T22:32:20.942Z,6.50
2018-07-21T22:34:57.140Z,6.57
2018-07-21T22:37:33.117Z,7.40
2018-07-21T22:40:09.427Z,7.03
2018-07-21T22:42:44.920Z,6.83
2018-07-21T22:45:20.969Z,7.43
2018-07-21T22:47:57.105Z,6.70
2018-07-21T22:50:33.259Z,6.77
2018-07-21T22:53:09.177Z,6.83
2018-07-21T22:55:45.388Z,6.57
2018-07-21T22:58:21.545Z,6.97
2018-07-21T23:00:57.585Z,6.57
2018-07-21T23:03:33.738Z,6.17
2018-07-21T23:06:09.938Z,6.90
2018-07-21T23:08:45.936Z,6.20
2018-07-21T23:11:22.071Z,6.67
2018-07-21T23:13:58.127Z,6.00
2018-07-21T23:16:34.557Z,7.10
2018-07-21T23:19:10.401Z,6.93
2018-07-21T23:21:46.676Z,6.80
2018-07-21T23:24:22.610Z,7.90
2018-07-21T23:26:58.476Z,6.83
2018-07-21T23:29:34.286Z,6.40
2018-07-21T23:32:10.399Z,7.40
2018-07-21T23:34:46.542Z,7.03
2018-07-21T23:37:22.535Z,7.60
2018-07-21T23:39:58.561Z,7.93
2018-07-21T23:42:34.746Z,8.07
2018-07-21T23:45:10.757Z,7.43
2018-07-21T23:47:47.068Z,7.07
2018-07-21T23:50:23.169Z,6.80
2018-07-21T23:53:02.357Z,6.90
2018-07-21T23:55:40.528Z,7.20
2018-07-21T23:58:19.721Z,7.27
